createdAt,value
2022-08-20T00:02:18.728Z,37.08
2022-08-20T00:04:47.487Z,37.40
2022-08-20T00:17:15.690Z,33.40
2022-08-20T00:19:43.992Z,33.92
2022-08-20T00:22:12.393Z,33.33
2022-08-20T00:24:42.125Z,33.60
2022-08-20T00:27:10.471Z,32.88
2022-08-20T00:29:38.827Z,32.47
2022-08-20T00:32:07.415Z,32.78
2022-08-20T00:34:35.820Z,33.22
2022-08-20T00:37:04.169Z,32.15
2022-08-20T00:39:32.515Z,29.40
2022-08-20T00:42:02.390Z,31.45
2022-08-20T00:44:33.448Z,30.38
2022-08-20T00:47:05.262Z,30.00
2022-08-20T00:49:34.038Z,28.67
2022-08-20T00:52:07.599Z,28.70
2022-08-20T00:54:40.404Z,28.45
2022-08-20T00:57:23.282Z,26.67
2022-08-20T00:59:52.984Z,27.48
2022-08-20T01:02:25.446Z,27.08
2022-08-20T01:04:55.231Z,26.60
2022-08-20T01:07:32.592Z,25.67
2022-08-20T01:10:02.553Z,25.30
2022-08-20T01:12:32.492Z,25.75
2022-08-20T01:15:05.496Z,24.23
2022-08-20T01:17:36.838Z,23.13
2022-08-20T01:20:09.600Z,24.17
2022-08-20T01:23:02.333Z,24.20
2022-08-20T01:25:46.304Z,22.88
2022-08-20T01:28:17.379Z,22.90
2022-08-20T01:30:46.098Z,21.65
2022-08-20T01:33:14.612Z,20.77
2022-08-20T01:35:44.538Z,20.63
2022-08-20T01:38:13.931Z,20.40
2022-08-20T01:41:28.500Z,21.67
2022-08-20T01:43:58.562Z,20.08
2022-08-20T01:46:30.794Z,20.58
2022-08-20T01:49:00.900Z,19.45
2022-08-20T01:51:32.122Z,20.25
2022-08-20T01:54:00.916Z,18.95
2022-08-20T01:56:32.769Z,19.02
2022-08-20T01:59:06.509Z,18.52
2022-08-20T02:01:46.794Z,17.67
2022-08-20T02:04:18.716Z,18.00
2022-08-20T02:06:56.097Z,18.15
2022-08-20T02:09:26.046Z,17.77
2022-08-20T02:11:58.811Z,16.77
2022-08-20T02:14:30.165Z,15.85
2022-08-20T02:16:59.904Z,15.20
2022-08-20T02:19:33.059Z,15.27
2022-08-20T02:22:06.535Z,14.02
2022-08-20T02:24:35.537Z,13.20
2022-08-20T02:29:33.616Z,13.02
2022-08-20T02:32:32.668Z,12.63
2022-08-20T02:34:50.923Z,12.07
2022-08-20T02:37:19.281Z,12.38
2022-08-20T02:39:48.113Z,12.75
2022-08-20T02:42:18.290Z,12.27
2022-08-20T02:44:47.706Z,11.60
2022-08-20T02:47:18.302Z,12.18
2022-08-20T02:49:46.589Z,10.82
2022-08-20T02:52:14.899Z,10.45
2022-08-20T02:54:43.265Z,10.38
2022-08-20T02:57:14.069Z,11.35
2022-08-20T02:59:45.353Z,11.77
2022-08-20T03:02:14.077Z,10.18
2022-08-20T03:04:43.292Z,9.63
2022-08-20T03:07:11.981Z,10.10
2022-08-20T03:09:40.507Z,9.63
2022-08-20T03:12:09.854Z,9.73
2022-08-20T03:14:38.698Z,8.90
2022-08-20T03:17:08.536Z,9.43
2022-08-20T03:19:36.903Z,9.55
2022-08-20T03:22:07.052Z,8.82
2022-08-20T03:24:35.310Z,9.25
2022-08-20T03:27:03.568Z,8.63
2022-08-20T03:29:31.849Z,8.82
2022-08-20T03:32:00.610Z,8.90
2022-08-20T03:34:31.909Z,8.35
2022-08-20T03:37:00.216Z,8.23
2022-08-20T03:39:30.815Z,9.48
2022-08-20T03:41:59.129Z,8.10
2022-08-20T03:44:27.992Z,8.15
2022-08-20T03:46:58.389Z,8.25
2022-08-20T03:49:26.808Z,8.73
2022-08-20T03:51:58.492Z,8.02
2022-08-20T03:54:27.409Z,8.32
2022-08-20T03:57:00.789Z,9.00
2022-08-20T03:59:29.140Z,9.07
2022-08-20T04:01:57.606Z,8.18
2022-08-20T04:04:28.093Z,7.93
2022-08-20T04:07:00.088Z,8.48
2022-08-20T04:09:29.022Z,9.45
2022-08-20T04:11:58.832Z,8.80
2022-08-20T04:14:27.136Z,11.40
2022-08-20T04:16:57.682Z,10.43
2022-08-20T04:19:29.209Z,9.60
2022-08-20T04:22:02.207Z,9.20
2022-08-20T04:24:32.431Z,9.50
2022-08-20T04:27:02.997Z,9.13
2022-08-20T04:29:32.208Z,8.95
2022-08-20T04:32:02.754Z,9.85
2022-08-20T04:34:36.998Z,10.55
2022-08-20T04:37:16.889Z,11.27
2022-08-20T04:40:06.013Z,11.95
2022-08-20T04:42:34.697Z,13.98
2022-08-20T04:45:03.007Z,13.88
2022-08-20T04:47:34.611Z,14.98
2022-08-20T04:50:03.350Z,14.13
2022-08-20T04:52:33.249Z,14.32
2022-08-20T04:55:02.923Z,14.63
2022-08-20T04:57:36.650Z,14.02
2022-08-20T05:00:07.370Z,14.13
2022-08-20T05:02:36.401Z,13.10
2022-08-20T05:05:05.241Z,12.48
2022-08-20T05:07:40.416Z,12.15
2022-08-20T05:10:10.192Z,11.93
2022-08-20T05:12:38.815Z,13.05
2022-08-20T05:15:07.769Z,11.85
2022-08-20T05:17:36.078Z,11.90
2022-08-20T05:20:05.376Z,12.98
2022-08-20T05:22:35.317Z,12.60
2022-08-20T05:25:04.001Z,13.75
2022-08-20T05:27:34.755Z,12.85
2022-08-20T05:30:11.793Z,15.73
2022-08-20T05:32:44.908Z,15.05
2022-08-20T05:35:13.249Z,15.93
2022-08-20T05:37:45.864Z,20.90
2022-08-20T05:40:16.453Z,14.90
2022-08-20T05:42:44.870Z,12.65
2022-08-20T05:45:13.219Z,12.52
2022-08-20T05:47:42.894Z,12.68
2022-08-20T05:50:23.200Z,14.35
2022-08-20T05:52:58.383Z,12.88
2022-08-20T05:55:29.898Z,15.65
2022-08-20T05:57:59.324Z,21.58
2022-08-20T06:00:29.384Z,16.25
2022-08-20T06:03:17.777Z,14.75
2022-08-20T06:05:46.312Z,14.77
2022-08-20T06:08:16.953Z,15.10
2022-08-20T06:10:45.997Z,15.13
2022-08-20T06:13:14.361Z,15.53
2022-08-20T06:15:42.810Z,13.95
2022-08-20T06:18:27.478Z,13.35
2022-08-20T06:20:57.087Z,14.05
2022-08-20T06:23:54.399Z,14.93
2022-08-20T06:26:17.193Z,14.52
2022-08-20T06:28:58.080Z,13.95
2022-08-20T06:31:27.561Z,13.45
2022-08-20T06:33:56.440Z,13.32
2022-08-20T06:36:25.023Z,13.10
2022-08-20T06:38:58.488Z,12.82
2022-08-20T06:41:36.046Z,13.13
2022-08-20T06:44:07.514Z,13.77
2022-08-20T06:46:36.337Z,13.20
2022-08-20T06:49:05.307Z,12.40
2022-08-20T06:51:34.295Z,18.83
2022-08-20T06:56:35.552Z,16.35
2022-08-20T06:59:03.897Z,20.00
2022-08-20T07:01:32.973Z,18.27
2022-08-20T07:04:01.392Z,18.48
2022-08-20T07:06:29.780Z,15.30
2022-08-20T07:08:58.603Z,14.40
2022-08-20T07:11:29.036Z,14.35
2022-08-20T07:13:58.299Z,15.07
2022-08-20T07:16:27.649Z,13.75
2022-08-20T07:18:56.041Z,14.27
2022-08-20T07:21:24.430Z,14.05
2022-08-20T07:23:54.833Z,13.77
2022-08-20T07:26:25.560Z,13.85
2022-08-20T07:28:55.627Z,13.68
2022-08-20T07:31:42.263Z,13.05
2022-08-20T07:34:11.764Z,13.77
2022-08-20T07:36:40.462Z,15.02
2022-08-20T07:39:08.788Z,14.40
2022-08-20T07:41:37.820Z,16.00
2022-08-20T07:44:07.642Z,13.90
2022-08-20T07:46:36.480Z,15.98
2022-08-20T07:49:05.426Z,16.00
2022-08-20T07:51:33.981Z,14.32
2022-08-20T07:54:02.334Z,15.43
2022-08-20T07:56:30.681Z,12.57
2022-08-20T07:59:02.327Z,12.20
2022-08-20T08:01:33.370Z,12.68
2022-08-20T08:04:02.733Z,12.77
2022-08-20T08:06:32.847Z,12.45
2022-08-20T08:09:06.139Z,13.68
2022-08-20T08:11:39.419Z,12.18
2022-08-20T08:14:09.603Z,19.13
2022-08-20T08:16:45.654Z,12.75
2022-08-20T08:19:18.953Z,9.55
2022-08-20T08:21:49.949Z,10.02
2022-08-20T08:24:21.831Z,8.68
2022-08-20T08:26:52.504Z,16.40
2022-08-20T08:29:21.334Z,27.20
2022-08-20T08:31:51.029Z,22.23
2022-08-20T08:34:19.400Z,10.73
2022-08-20T08:36:51.138Z,6.60
2022-08-20T08:39:20.296Z,5.22
2022-08-20T08:41:52.977Z,6.20
2022-08-20T08:44:26.455Z,7.13
2022-08-20T08:46:59.579Z,5.78
2022-08-20T08:49:38.163Z,9.48
2022-08-20T08:52:14.845Z,7.80
2022-08-20T08:54:47.075Z,6.53
2022-08-20T08:57:15.720Z,3.25
2022-08-20T08:59:58.355Z,2.97
2022-08-20T09:02:38.748Z,4.22
2022-08-20T09:05:15.378Z,5.60
2022-08-20T09:07:51.024Z,2.90
2022-08-20T09:10:25.031Z,2.40
2022-08-20T09:12:55.704Z,2.47
2022-08-20T09:15:24.078Z,9.43
2022-08-20T09:17:53.909Z,2.55
2022-08-20T09:20:22.963Z,7.78
2022-08-20T09:22:55.958Z,2.22
2022-08-20T09:25:24.503Z,2.15
2022-08-20T09:27:52.834Z,9.17
2022-08-20T09:30:21.402Z,13.30
2022-08-20T09:32:53.956Z,4.22
2022-08-20T09:35:22.440Z,2.45
2022-08-20T09:37:52.766Z,2.50
2022-08-20T09:40:21.792Z,2.70
2022-08-20T09:42:50.574Z,1.98
2022-08-20T09:45:20.084Z,1.70
2022-08-20T09:47:56.262Z,5.15
2022-08-20T09:50:27.030Z,1.73
2022-08-20T09:52:57.942Z,2.13
2022-08-20T09:55:33.972Z,1.70
2022-08-20T09:58:05.503Z,1.92
2022-08-20T10:00:36.097Z,1.10
2022-08-20T10:03:04.439Z,1.30
2022-08-20T10:05:34.148Z,1.35
2022-08-20T10:08:06.608Z,1.20
2022-08-20T10:10:37.539Z,1.73
2022-08-20T10:13:06.225Z,1.67
2022-08-20T10:15:34.804Z,1.80
2022-08-20T10:18:05.940Z,2.10
2022-08-20T10:23:05.027Z,3.17
2022-08-20T10:25:33.347Z,2.40
2022-08-20T10:28:01.707Z,2.00
2022-08-20T10:30:30.021Z,1.75
2022-08-20T10:32:59.789Z,2.13
2022-08-20T10:35:28.486Z,10.43
2022-08-20T10:38:00.492Z,7.95
2022-08-20T10:40:29.056Z,3.50
2022-08-20T10:42:57.348Z,2.15
2022-08-20T10:45:26.383Z,2.15
2022-08-20T10:47:54.662Z,2.10
2022-08-20T10:50:22.955Z,1.98
2022-08-20T10:52:51.341Z,2.00
2022-08-20T10:55:21.753Z,2.00
2022-08-20T10:57:50.289Z,1.85
2022-08-20T11:00:19.734Z,1.98
2022-08-20T11:02:48.232Z,2.00
2022-08-20T11:05:16.812Z,2.45
2022-08-20T11:07:55.046Z,2.17
2022-08-20T11:10:27.922Z,1.70
2022-08-20T11:12:56.469Z,2.30
2022-08-20T11:15:25.964Z,1.90
2022-08-20T11:17:55.509Z,1.80
2022-08-20T11:20:26.192Z,1.50
2022-08-20T11:22:55.312Z,1.85
2022-08-20T11:25:25.038Z,12.18
2022-08-20T11:27:54.691Z,5.00
2022-08-20T11:30:26.510Z,4.15
2022-08-20T11:32:55.216Z,2.25
2022-08-20T11:35:42.222Z,1.88
2022-08-20T11:38:13.647Z,2.35
2022-08-20T11:40:43.388Z,2.42
2022-08-20T11:43:16.431Z,2.53
2022-08-20T11:45:46.475Z,2.03
2022-08-20T11:48:15.043Z,2.38
2022-08-20T11:50:43.576Z,3.63
2022-08-20T11:53:12.005Z,2.92
2022-08-20T11:55:40.605Z,2.55
2022-08-20T11:58:11.144Z,2.00
2022-08-20T12:00:39.520Z,2.22
2022-08-20T12:03:11.679Z,2.20
2022-08-20T12:05:44.979Z,2.20
2022-08-20T12:08:25.209Z,2.17
2022-08-20T12:10:56.583Z,2.22
2022-08-20T12:13:30.746Z,2.13
2022-08-20T12:16:12.511Z,2.50
2022-08-20T12:18:40.987Z,2.42
2022-08-20T12:21:09.339Z,2.97
2022-08-20T12:23:37.600Z,2.50
2022-08-20T12:26:06.149Z,2.25
2022-08-20T12:28:35.822Z,2.30
2022-08-20T12:31:04.205Z,2.33
2022-08-20T12:33:32.475Z,2.33
2022-08-20T12:36:00.803Z,2.28
2022-08-20T12:38:29.206Z,2.25
2022-08-20T12:40:57.603Z,2.22
2022-08-20T12:43:26.004Z,2.30
2022-08-20T12:45:57.754Z,2.00
2022-08-20T12:48:26.017Z,2.38
2022-08-20T12:50:54.279Z,1.90
2022-08-20T12:55:53.688Z,2.08
2022-08-20T12:58:22.045Z,2.28
2022-08-20T13:00:51.164Z,1.95
2022-08-20T13:03:21.522Z,2.53
2022-08-20T13:05:50.467Z,2.30
2022-08-20T13:08:19.537Z,2.50
2022-08-20T13:10:48.202Z,2.17
2022-08-20T13:13:20.328Z,2.47
2022-08-20T13:15:50.376Z,1.85
2022-08-20T13:18:20.590Z,2.15
2022-08-20T13:20:50.938Z,1.90
2022-08-20T13:23:19.310Z,1.90
2022-08-20T13:25:47.658Z,2.00
2022-08-20T13:28:15.969Z,2.67
2022-08-20T13:30:44.193Z,5.00
2022-08-20T13:33:12.609Z,3.10
2022-08-20T13:35:42.417Z,3.67
2022-08-20T13:38:14.297Z,2.25
2022-08-20T13:40:42.574Z,2.22
2022-08-20T13:43:12.096Z,1.95
2022-08-20T13:45:41.236Z,2.10
2022-08-20T13:48:14.835Z,1.77
2022-08-20T13:50:46.922Z,2.47
2022-08-20T13:53:16.680Z,2.50
2022-08-20T13:55:48.144Z,2.70
2022-08-20T13:58:17.464Z,3.65
2022-08-20T14:00:47.115Z,3.67
2022-08-20T14:03:19.836Z,2.63
2022-08-20T14:05:50.038Z,2.75
2022-08-20T14:08:20.488Z,2.63
2022-08-20T14:10:51.545Z,2.67
2022-08-20T14:13:24.010Z,2.00
2022-08-20T14:15:53.382Z,2.10
2022-08-20T14:18:21.952Z,2.05
2022-08-20T14:20:51.723Z,2.13
2022-08-20T14:23:20.054Z,1.95
2022-08-20T14:25:50.247Z,2.60
2022-08-20T14:28:20.668Z,2.05
2022-08-20T14:30:53.115Z,2.00
2022-08-20T14:33:22.879Z,2.05
2022-08-20T14:35:53.415Z,2.10
2022-08-20T14:40:50.704Z,2.38
2022-08-20T14:43:19.469Z,1.85
2022-08-20T14:45:50.079Z,2.33
2022-08-20T14:48:18.385Z,2.05
2022-08-20T14:50:46.768Z,2.20
2022-08-20T14:53:16.708Z,2.20
2022-08-20T14:55:44.996Z,2.45
2022-08-20T14:58:17.438Z,1.90
2022-08-20T15:00:49.090Z,2.13
2022-08-20T15:03:17.408Z,1.80
2022-08-20T15:05:45.793Z,1.90
2022-08-20T15:08:19.856Z,1.90
2022-08-20T15:10:48.175Z,2.28
2022-08-20T15:13:16.515Z,3.17
2022-08-20T15:15:46.981Z,4.67
2022-08-20T15:18:15.395Z,2.60
2022-08-20T15:20:43.718Z,2.85
2022-08-20T15:23:11.995Z,1.83
2022-08-20T15:25:41.719Z,1.60
2022-08-20T15:28:11.128Z,1.60
2022-08-20T15:30:40.824Z,5.40
2022-08-20T15:33:10.037Z,2.95
2022-08-20T15:35:38.402Z,3.95
2022-08-20T15:38:06.859Z,3.50
2022-08-20T15:40:35.667Z,2.10
2022-08-20T15:43:07.359Z,1.65
2022-08-20T15:45:38.287Z,1.40
2022-08-20T15:48:13.027Z,1.00
2022-08-20T15:51:14.352Z,1.15
2022-08-20T15:53:57.249Z,1.10
2022-08-20T15:56:58.299Z,1.30
2022-08-20T16:07:33.061Z,2.15
2022-08-20T16:10:11.716Z,11.25
2022-08-20T16:12:45.208Z,15.95
2022-08-20T16:17:51.141Z,3.55
2022-08-20T16:20:25.688Z,2.80
2022-08-20T16:23:04.344Z,1.65
2022-08-20T16:25:40.305Z,1.60
2022-08-20T16:28:23.728Z,1.98
2022-08-20T16:30:59.758Z,2.15
2022-08-20T16:33:33.247Z,4.53
2022-08-20T16:36:10.967Z,2.40
2022-08-20T16:38:47.027Z,2.78
2022-08-20T16:41:21.267Z,1.83
2022-08-20T16:43:54.088Z,1.70
2022-08-20T16:46:27.868Z,1.58
2022-08-20T16:49:01.577Z,1.55
2022-08-20T16:51:37.930Z,2.25
2022-08-20T16:54:07.073Z,2.30
2022-08-20T16:56:39.304Z,2.30
2022-08-20T16:59:10.623Z,4.05
2022-08-20T17:04:09.405Z,2.92
2022-08-20T17:14:14.117Z,1.42
2022-08-20T17:16:46.509Z,1.23
2022-08-20T17:19:20.969Z,1.48
2022-08-20T17:21:50.622Z,1.50
2022-08-20T17:24:26.234Z,1.30
2022-08-20T17:27:00.426Z,6.40
2022-08-20T17:29:30.370Z,2.80
2022-08-20T17:32:01.739Z,1.60
2022-08-20T17:37:09.412Z,2.13
2022-08-20T17:39:46.773Z,1.40
2022-08-20T17:42:20.295Z,1.85
2022-08-20T17:44:55.091Z,21.38
2022-08-20T17:47:33.651Z,19.33
2022-08-20T17:50:09.581Z,4.38
2022-08-20T17:52:57.560Z,2.10
2022-08-20T17:55:31.435Z,4.43
2022-08-20T17:58:02.685Z,3.13
2022-08-20T18:00:33.675Z,2.20
2022-08-20T18:03:12.451Z,1.80
2022-08-20T18:05:44.736Z,1.70
2022-08-20T18:08:32.481Z,1.33
2022-08-20T18:11:08.431Z,1.92
2022-08-20T18:13:49.040Z,2.97
2022-08-20T18:16:26.625Z,2.37
2022-08-20T18:19:01.092Z,2.30
2022-08-20T18:21:57.366Z,2.90
2022-08-20T18:24:31.110Z,2.25
2022-08-20T18:27:03.884Z,2.05
2022-08-20T18:29:43.656Z,1.90
2022-08-20T18:32:31.672Z,1.45
2022-08-20T18:35:19.951Z,1.60
2022-08-20T18:37:48.670Z,1.67
2022-08-20T18:40:29.699Z,1.58
2022-08-20T18:43:13.379Z,1.35
2022-08-20T18:45:42.201Z,2.47
2022-08-20T18:48:22.873Z,2.75
2022-08-20T18:50:56.421Z,3.27
2022-08-20T18:53:33.946Z,2.50
2022-08-20T18:56:05.833Z,1.90
2022-08-20T18:58:39.345Z,1.75
2022-08-20T19:01:13.757Z,1.80
2022-08-20T19:03:46.336Z,2.03
2022-08-20T19:06:29.687Z,1.80
2022-08-20T19:09:05.323Z,1.45
2022-08-20T19:12:08.884Z,1.65
2022-08-20T19:14:50.716Z,2.15
2022-08-20T19:17:24.731Z,1.88
2022-08-20T19:20:00.311Z,1.98
2022-08-20T19:22:30.320Z,1.48
2022-08-20T19:24:59.632Z,2.00
2022-08-20T19:27:30.380Z,2.58
2022-08-20T19:29:59.222Z,3.40
2022-08-20T19:32:29.879Z,4.72
2022-08-20T19:35:01.142Z,2.70
2022-08-20T19:37:39.875Z,2.90
2022-08-20T19:40:24.507Z,2.50
2022-08-20T19:42:57.597Z,37.28
2022-08-20T19:45:33.582Z,20.20
2022-08-20T19:48:32.386Z,5.20
2022-08-20T19:51:07.534Z,2.65
2022-08-20T19:53:38.752Z,2.70
2022-08-20T19:56:12.040Z,3.70
2022-08-20T19:58:43.551Z,3.35
2022-08-20T20:01:19.329Z,2.58
2022-08-20T20:03:58.034Z,1.98
2022-08-20T20:06:27.025Z,2.13
2022-08-20T20:09:00.195Z,2.22
2022-08-20T20:11:35.156Z,1.80
2022-08-20T20:14:08.875Z,2.20
2022-08-20T20:16:38.571Z,1.20
2022-08-20T20:19:26.671Z,1.80
2022-08-20T20:22:13.359Z,1.65
2022-08-20T20:25:00.967Z,2.15
2022-08-20T20:27:32.048Z,1.70
2022-08-20T20:30:02.337Z,2.42
2022-08-20T20:32:33.640Z,2.70
2022-08-20T20:35:05.250Z,2.60
2022-08-20T20:37:49.532Z,2.60
2022-08-20T20:40:26.288Z,2.65
2022-08-20T20:43:01.652Z,2.50
2022-08-20T20:45:35.197Z,2.20
2022-08-20T20:48:18.252Z,1.90
2022-08-20T20:50:49.084Z,2.05
2022-08-20T20:53:40.287Z,1.70
2022-08-20T20:56:35.381Z,1.77
2022-08-20T20:59:06.762Z,1.80
2022-08-20T21:01:50.079Z,1.60
2022-08-20T21:04:20.390Z,1.50
2022-08-20T21:06:49.587Z,1.45
2022-08-20T21:09:20.606Z,1.42
2022-08-20T21:11:53.009Z,1.50
2022-08-20T21:14:23.692Z,1.30
2022-08-20T21:16:54.655Z,1.60
2022-08-20T21:19:23.191Z,1.80
2022-08-20T21:21:51.858Z,2.50
2022-08-20T21:24:20.378Z,2.63
2022-08-20T21:26:53.406Z,2.92
2022-08-20T21:29:31.700Z,2.50
2022-08-20T21:32:01.046Z,2.50
2022-08-20T21:34:29.377Z,1.92
2022-08-20T21:36:59.995Z,2.30
2022-08-20T21:39:28.850Z,2.00
2022-08-20T21:42:02.029Z,1.95
2022-08-20T21:44:33.496Z,1.50
2022-08-20T21:47:02.800Z,1.70
2022-08-20T21:49:33.931Z,1.70
2022-08-20T21:52:03.734Z,1.52
2022-08-20T21:54:33.100Z,1.70
2022-08-20T21:57:06.085Z,1.70
2022-08-20T21:59:39.340Z,1.55
2022-08-20T22:02:07.775Z,1.70
2022-08-20T22:04:36.262Z,1.55
2022-08-20T22:07:05.694Z,2.15
2022-08-20T22:09:36.257Z,2.35
2022-08-20T22:12:08.320Z,2.10
2022-08-20T22:14:36.635Z,2.63
2022-08-20T22:17:05.367Z,1.90
2022-08-20T22:19:33.689Z,2.08
2022-08-20T22:22:04.422Z,2.17
2022-08-20T22:24:32.967Z,1.95
2022-08-20T22:27:01.356Z,2.30
2022-08-20T22:29:31.092Z,2.35
2022-08-20T22:32:00.274Z,1.55
2022-08-20T22:34:33.503Z,1.45
2022-08-20T22:37:03.936Z,1.35
2022-08-20T22:39:32.261Z,1.60
2022-08-20T22:42:02.272Z,1.42
2022-08-20T22:44:32.000Z,1.88
2022-08-20T22:47:03.712Z,1.50
2022-08-20T22:49:39.769Z,1.65
2022-08-20T22:52:08.461Z,1.40
2022-08-20T22:54:39.812Z,1.60
2022-08-20T22:57:13.166Z,1.40
2022-08-20T22:59:49.637Z,1.48
2022-08-20T23:02:22.963Z,1.52
2022-08-20T23:04:53.622Z,1.55
2022-08-20T23:07:22.133Z,1.25
2022-08-20T23:09:50.600Z,1.85
2022-08-20T23:12:18.964Z,1.40
2022-08-20T23:14:52.601Z,1.60
2022-08-20T23:17:21.287Z,1.38
2022-08-20T23:19:50.770Z,1.50
2022-08-20T23:22:21.583Z,1.55
2022-08-20T23:24:58.483Z,1.73
2022-08-20T23:27:32.499Z,1.40
2022-08-20T23:30:02.194Z,1.67
2022-08-20T23:32:30.689Z,1.70
2022-08-20T23:34:58.947Z,1.63
2022-08-20T23:37:27.365Z,2.08
2022-08-20T23:39:55.766Z,2.15
2022-08-20T23:42:26.340Z,2.20
2022-08-20T23:44:54.651Z,1.88
2022-08-20T23:47:24.655Z,1.60
2022-08-20T23:49:52.979Z,1.50
2022-08-20T23:52:21.544Z,1.50
2022-08-20T23:54:50.275Z,1.88
2022-08-20T23:57:20.841Z,1.60
2022-08-20T23:59:52.980Z,1.90
